createdAt,value
2022-08-12T00:01:05.230Z,54.27
2022-08-12T00:03:52.292Z,54.33
2022-08-12T00:06:41.481Z,54.17
2022-08-12T00:09:27.670Z,54.18
2022-08-12T00:12:13.456Z,53.90
2022-08-12T00:15:01.434Z,54.25
2022-08-12T00:17:48.231Z,54.01
2022-08-12T00:20:33.865Z,54.38
2022-08-12T00:23:19.565Z,54.24
2022-08-12T00:26:23.272Z,53.96
2022-08-12T00:29:12.101Z,53.92
2022-08-12T00:32:01.719Z,54.44
2022-08-12T00:34:51.920Z,54.11
2022-08-12T00:37:40.062Z,54.43
2022-08-12T00:40:28.540Z,54.26
2022-08-12T00:42:57.384Z,54.15
2022-08-12T00:45:24.345Z,54.20
2022-08-12T00:47:53.149Z,54.38
2022-08-12T00:50:22.170Z,54.49
2022-08-12T00:52:52.670Z,54.40
2022-08-12T00:55:21.487Z,54.64
2022-08-12T00:57:51.062Z,54.66
2022-08-12T01:00:24.142Z,54.59
2022-08-12T01:02:58.807Z,54.63
2022-08-12T01:05:45.286Z,54.35
2022-08-12T01:08:31.039Z,54.48
2022-08-12T01:11:17.258Z,54.57
2022-08-12T01:13:48.412Z,54.47
2022-08-12T01:16:23.547Z,54.58
2022-08-12T01:18:52.956Z,54.52
2022-08-12T01:21:28.679Z,54.51
2022-08-12T01:24:31.729Z,54.57
2022-08-12T01:27:02.772Z,54.78
2022-08-12T01:29:34.307Z,54.90
2022-08-12T01:32:09.012Z,54.76
2022-08-12T01:34:38.911Z,54.73
2022-08-12T01:37:09.392Z,54.71
2022-08-12T01:40:34.310Z,55.05
2022-08-12T01:42:42.615Z,55.03
2022-08-12T01:45:12.587Z,55.01
2022-08-12T01:48:05.234Z,55.13
2022-08-12T01:50:55.244Z,54.90
2022-08-12T01:53:50.464Z,54.84
2022-08-12T01:56:22.196Z,54.83
2022-08-12T01:59:12.363Z,55.08
2022-08-12T02:01:41.711Z,54.99
2022-08-12T02:04:46.798Z,55.09
2022-08-12T02:08:03.112Z,55.17
2022-08-12T02:11:19.162Z,55.25
2022-08-12T02:13:52.008Z,54.81
2022-08-12T02:16:36.618Z,55.25
2022-08-12T02:19:23.444Z,55.00
2022-08-12T02:22:07.748Z,54.94
2022-08-12T02:24:38.387Z,55.06
2022-08-12T02:27:10.410Z,55.02
2022-08-12T02:29:39.316Z,55.16
2022-08-12T02:32:07.754Z,55.09
2022-08-12T02:34:35.031Z,55.18
2022-08-12T02:37:03.757Z,55.28
2022-08-12T02:39:35.478Z,55.31
2022-08-12T02:42:04.314Z,55.25
2022-08-12T02:44:40.487Z,55.47
2022-08-12T02:47:07.775Z,55.10
2022-08-12T02:49:59.040Z,55.03
2022-08-12T02:52:27.572Z,54.99
2022-08-12T02:55:01.766Z,55.07
2022-08-12T02:57:31.016Z,55.13
2022-08-12T03:00:00.383Z,55.48
2022-08-12T03:02:30.693Z,55.13
2022-08-12T03:04:58.730Z,55.29
2022-08-12T03:07:29.616Z,55.13
2022-08-12T03:10:17.941Z,55.36
2022-08-12T03:12:50.910Z,55.56
2022-08-12T03:15:22.189Z,55.53
2022-08-12T03:18:25.924Z,55.50
2022-08-12T03:20:57.192Z,55.46
2022-08-12T03:23:30.234Z,55.69
2022-08-12T03:26:01.040Z,55.44
2022-08-12T03:28:49.342Z,55.66
2022-08-12T03:31:18.591Z,55.44
2022-08-12T03:34:02.385Z,55.24
2022-08-12T03:36:33.709Z,55.65
2022-08-12T03:39:17.361Z,55.22
2022-08-12T03:42:01.195Z,55.60
2022-08-12T03:45:08.881Z,55.42
2022-08-12T03:48:18.917Z,55.50
2022-08-12T03:51:06.899Z,55.34
2022-08-12T03:53:52.928Z,55.91
2022-08-12T03:56:38.847Z,55.63
2022-08-12T03:59:25.975Z,55.49
2022-08-12T04:01:57.993Z,55.40
2022-08-12T04:04:35.346Z,55.67
2022-08-12T04:07:08.258Z,55.58
2022-08-12T04:09:38.250Z,55.47
2022-08-12T04:12:26.236Z,55.64
2022-08-12T04:14:54.633Z,55.68
2022-08-12T04:17:21.734Z,55.30
2022-08-12T04:19:49.276Z,55.43
2022-08-12T04:22:16.763Z,55.69
2022-08-12T04:24:48.830Z,55.40
2022-08-12T04:27:17.745Z,55.60
2022-08-12T04:30:30.890Z,55.49
2022-08-12T04:32:32.437Z,55.42
2022-08-12T04:34:59.554Z,55.67
2022-08-12T04:37:26.428Z,54.48
2022-08-12T04:39:54.389Z,53.15
2022-08-12T04:42:22.344Z,52.81
2022-08-12T04:44:49.292Z,52.56
2022-08-12T04:47:17.228Z,52.61
2022-08-12T04:49:45.984Z,52.62
2022-08-12T04:52:12.898Z,52.60
2022-08-12T04:54:39.860Z,52.83
2022-08-12T04:57:10.058Z,52.69
2022-08-12T04:59:47.089Z,52.90
2022-08-12T05:02:22.066Z,52.93
2022-08-12T05:05:00.739Z,53.10
2022-08-12T05:07:28.247Z,53.57
2022-08-12T05:09:59.932Z,54.06
2022-08-12T05:12:35.131Z,54.27
2022-08-12T05:15:02.210Z,54.36
2022-08-12T05:17:29.056Z,54.57
2022-08-12T05:19:58.028Z,54.90
2022-08-12T05:22:27.017Z,55.11
2022-08-12T05:24:54.814Z,55.31
2022-08-12T05:27:23.156Z,55.41
2022-08-12T05:30:07.008Z,55.36
2022-08-12T05:32:37.197Z,55.87
2022-08-12T05:35:07.097Z,55.94
2022-08-12T05:37:36.977Z,55.95
2022-08-12T05:40:10.243Z,55.64
2022-08-12T05:42:38.278Z,56.03
2022-08-12T05:45:06.468Z,56.05
2022-08-12T05:47:48.730Z,55.98
2022-08-12T05:50:20.617Z,56.39
2022-08-12T05:52:48.149Z,56.91
2022-08-12T05:55:15.373Z,56.67
2022-08-12T05:57:44.458Z,56.28
2022-08-12T06:00:11.854Z,55.13
2022-08-12T06:02:38.852Z,53.52
2022-08-12T06:05:07.759Z,54.62
2022-08-12T06:07:59.393Z,55.39
2022-08-12T06:10:32.042Z,55.90
2022-08-12T06:13:03.357Z,56.23
2022-08-12T06:15:32.196Z,56.51
2022-08-12T06:18:13.925Z,56.58
2022-08-12T06:20:43.823Z,57.01
2022-08-12T06:23:12.136Z,56.89
2022-08-12T06:25:39.298Z,55.83
2022-08-12T06:28:21.535Z,56.06
2022-08-12T06:31:02.695Z,55.86
2022-08-12T06:33:55.298Z,54.70
2022-08-12T06:36:29.583Z,54.72
2022-08-12T06:38:59.765Z,54.73
2022-08-12T06:42:30.637Z,54.53
2022-08-12T06:44:32.728Z,54.73
2022-08-12T06:47:00.250Z,55.04
2022-08-12T06:49:28.535Z,55.43
2022-08-12T06:51:56.534Z,55.33
2022-08-12T06:54:31.517Z,55.57
2022-08-12T06:57:57.228Z,55.76
2022-08-12T06:59:51.283Z,55.58
2022-08-12T07:02:20.835Z,56.13
2022-08-12T07:04:47.974Z,56.59
2022-08-12T07:07:16.013Z,56.32
2022-08-12T07:10:06.762Z,56.25
2022-08-12T07:12:31.225Z,56.33
2022-08-12T07:14:59.482Z,56.23
2022-08-12T07:17:36.701Z,56.22
2022-08-12T07:20:11.632Z,56.32
2022-08-12T07:22:57.961Z,56.08
2022-08-12T07:25:41.180Z,55.86
2022-08-12T07:28:16.724Z,56.02
2022-08-12T07:30:46.862Z,56.14
2022-08-12T07:33:17.037Z,55.95
2022-08-12T07:35:48.616Z,56.48
2022-08-12T07:38:28.813Z,56.45
2022-08-12T07:41:15.793Z,56.25
2022-08-12T07:43:54.135Z,56.07
2022-08-12T07:46:26.257Z,56.30
2022-08-12T07:48:56.372Z,56.29
2022-08-12T07:51:25.775Z,56.43
2022-08-12T07:54:00.273Z,56.01
2022-08-12T07:56:31.805Z,56.20
2022-08-12T07:58:59.581Z,55.95
2022-08-12T08:01:27.336Z,56.30
2022-08-12T08:04:18.409Z,56.41
2022-08-12T08:06:47.077Z,56.53
2022-08-12T08:09:16.910Z,56.05
2022-08-12T08:12:02.264Z,56.27
2022-08-12T08:14:29.697Z,56.04
2022-08-12T08:16:58.323Z,56.24
2022-08-12T08:19:26.261Z,56.52
2022-08-12T08:21:55.308Z,56.62
2022-08-12T08:24:28.314Z,56.64
2022-08-12T08:26:58.739Z,56.56
2022-08-12T08:29:26.213Z,56.22
2022-08-12T08:32:00.441Z,56.51
2022-08-12T08:34:54.540Z,56.44
2022-08-12T08:37:17.457Z,56.51
2022-08-12T08:39:44.645Z,56.74
2022-08-12T08:42:30.255Z,56.33
2022-08-12T08:44:59.007Z,56.75
2022-08-12T08:47:26.722Z,56.80
2022-08-12T08:49:55.027Z,56.75
2022-08-12T08:52:40.382Z,56.75
2022-08-12T08:55:14.199Z,56.44
2022-08-12T08:57:44.641Z,56.46
2022-08-12T09:00:19.300Z,56.71
2022-08-12T09:02:59.143Z,56.83
2022-08-12T09:06:01.885Z,56.51
2022-08-12T09:08:22.498Z,56.35
2022-08-12T09:11:00.132Z,56.61
2022-08-12T09:14:12.447Z,56.35
2022-08-12T09:16:20.973Z,56.54
2022-08-12T09:18:52.502Z,56.65
2022-08-12T09:21:22.976Z,56.58
2022-08-12T09:23:59.614Z,56.16
2022-08-12T09:26:29.443Z,56.14
2022-08-12T09:28:58.222Z,55.88
2022-08-12T09:32:04.045Z,55.84
2022-08-12T09:34:26.772Z,56.22
2022-08-12T09:37:02.501Z,56.05
2022-08-12T09:40:05.626Z,56.07
2022-08-12T09:43:11.271Z,56.17
2022-08-12T09:46:20.094Z,55.98
2022-08-12T09:48:25.175Z,55.67
2022-08-12T09:50:55.645Z,55.57
2022-08-12T09:53:35.965Z,56.10
2022-08-12T09:56:57.426Z,55.77
2022-08-12T09:59:00.271Z,55.99
2022-08-12T10:01:35.738Z,55.88
2022-08-12T10:04:19.289Z,55.82
2022-08-12T10:06:53.783Z,55.54
2022-08-12T10:09:28.648Z,55.82
2022-08-12T10:12:33.142Z,55.75
2022-08-12T10:15:02.386Z,55.90
2022-08-12T10:17:29.787Z,55.93
2022-08-12T10:19:59.419Z,55.35
2022-08-12T10:22:48.974Z,55.49
2022-08-12T10:25:51.652Z,55.83
2022-08-12T10:28:38.971Z,55.58
2022-08-12T10:31:06.498Z,55.39
2022-08-12T10:33:54.052Z,55.48
2022-08-12T10:36:39.936Z,55.56
2022-08-12T10:40:00.218Z,54.88
2022-08-12T10:42:16.358Z,55.69
2022-08-12T10:45:01.317Z,55.68
2022-08-12T10:48:19.870Z,55.58
2022-08-12T10:50:33.663Z,55.09
2022-08-12T10:53:09.018Z,55.29
2022-08-12T10:55:36.406Z,55.31
2022-08-12T10:58:15.374Z,55.32
2022-08-12T11:00:55.242Z,55.01
2022-08-12T11:04:31.294Z,53.07
2022-08-12T11:07:09.297Z,53.86
2022-08-12T11:09:55.688Z,52.79
2022-08-12T11:12:56.543Z,53.57
2022-08-12T11:15:19.361Z,52.20
2022-08-12T11:17:53.404Z,52.84
2022-08-12T11:20:23.932Z,51.36
2022-08-12T11:22:59.977Z,51.19
2022-08-12T11:25:56.653Z,52.16
2022-08-12T11:28:33.475Z,51.87
2022-08-12T11:31:03.006Z,51.94
2022-08-12T11:34:04.546Z,51.55
2022-08-12T11:36:17.947Z,51.16
2022-08-12T11:38:50.896Z,51.95
2022-08-12T11:41:30.956Z,51.12
2022-08-12T11:44:30.760Z,50.19
2022-08-12T11:46:51.052Z,51.10
2022-08-12T11:49:30.626Z,50.40
2022-08-12T11:52:00.816Z,50.20
2022-08-12T11:54:29.773Z,50.29
2022-08-12T11:56:59.725Z,50.35
2022-08-12T12:02:19.232Z,49.92
2022-08-12T12:04:52.728Z,50.20
2022-08-12T12:07:33.954Z,49.75
2022-08-12T12:10:15.864Z,49.33
2022-08-12T12:12:49.816Z,50.36
2022-08-12T12:15:24.936Z,50.76
2022-08-12T12:17:55.701Z,50.08
2022-08-12T12:20:25.851Z,49.80
2022-08-12T12:22:54.758Z,49.58
2022-08-12T12:25:21.822Z,50.21
2022-08-12T12:28:08.842Z,48.72
2022-08-12T12:30:55.759Z,49.10
2022-08-12T12:33:23.336Z,49.61
2022-08-12T12:36:18.526Z,50.12
2022-08-12T12:38:37.191Z,50.24
2022-08-12T12:41:16.497Z,49.70
2022-08-12T12:43:53.711Z,48.87
2022-08-12T12:46:30.785Z,49.33
2022-08-12T12:48:57.789Z,48.24
2022-08-12T12:52:06.766Z,48.70
2022-08-12T12:54:13.322Z,49.60
2022-08-12T12:56:44.687Z,49.70
2022-08-12T12:59:54.971Z,49.83
2022-08-12T13:02:07.789Z,50.33
2022-08-12T13:04:37.291Z,50.91
2022-08-12T13:07:06.758Z,50.34
2022-08-12T13:09:36.018Z,50.56
2022-08-12T13:12:08.223Z,50.71
2022-08-12T13:14:35.449Z,51.04
2022-08-12T13:17:07.266Z,51.17
2022-08-12T13:19:43.414Z,51.14
2022-08-12T13:22:19.026Z,51.85
2022-08-12T13:24:56.891Z,51.01
2022-08-12T13:27:35.793Z,51.07
2022-08-12T13:30:15.769Z,51.33
2022-08-12T13:32:57.043Z,51.59
2022-08-12T13:36:05.046Z,51.64
2022-08-12T13:38:42.203Z,51.81
2022-08-12T13:41:33.874Z,52.13
2022-08-12T13:44:05.742Z,52.26
2022-08-12T13:46:58.738Z,52.38
2022-08-12T13:49:53.936Z,52.36
2022-08-12T13:52:14.615Z,52.56
2022-08-12T13:54:41.541Z,53.12
2022-08-12T13:57:11.080Z,52.92
2022-08-12T13:59:48.412Z,53.36
2022-08-12T14:02:17.682Z,53.33
2022-08-12T14:04:45.819Z,53.71
2022-08-12T14:07:25.929Z,53.47
2022-08-12T14:10:16.442Z,53.46
2022-08-12T14:12:54.800Z,53.09
2022-08-12T14:15:35.112Z,52.82
2022-08-12T14:18:13.234Z,53.11
2022-08-12T14:20:43.642Z,53.11
2022-08-12T14:24:02.010Z,52.89
2022-08-12T14:26:00.930Z,53.10
2022-08-12T14:28:32.545Z,52.98
2022-08-12T14:31:01.959Z,53.36
2022-08-12T14:33:47.592Z,53.76
2022-08-12T14:36:19.365Z,54.02
2022-08-12T14:38:50.191Z,53.75
2022-08-12T14:41:19.395Z,54.07
2022-08-12T14:44:04.552Z,54.01
2022-08-12T14:46:40.210Z,53.71
2022-08-12T14:50:00.644Z,53.93
2022-08-12T14:52:43.246Z,53.64
2022-08-12T14:57:56.902Z,54.07
2022-08-12T15:00:50.639Z,54.38
2022-08-12T15:03:52.884Z,54.16
2022-08-12T15:06:39.279Z,54.41
2022-08-12T15:09:02.884Z,53.70
2022-08-12T15:11:54.811Z,54.14
2022-08-12T15:14:19.043Z,54.02
2022-08-12T15:16:46.178Z,53.68
2022-08-12T15:20:07.479Z,53.66
2022-08-12T15:22:36.995Z,53.73
2022-08-12T15:24:48.927Z,53.93
2022-08-12T15:27:16.008Z,54.05
2022-08-12T15:29:52.335Z,54.16
2022-08-12T15:32:31.816Z,54.40
2022-08-12T15:35:00.833Z,54.37
2022-08-12T15:38:08.346Z,54.36
2022-08-12T15:40:15.781Z,54.48
2022-08-12T15:42:59.892Z,53.80
2022-08-12T15:45:32.194Z,54.11
2022-08-12T15:48:17.056Z,53.91
2022-08-12T15:50:53.122Z,53.74
2022-08-12T15:53:41.224Z,53.37
2022-08-12T15:56:12.681Z,53.58
2022-08-12T15:58:41.750Z,53.66
2022-08-12T16:01:15.421Z,53.58
2022-08-12T16:04:00.266Z,52.99
2022-08-12T16:06:50.660Z,53.40
2022-08-12T16:09:21.479Z,53.63
2022-08-12T16:11:48.751Z,53.31
2022-08-12T16:14:16.326Z,53.63
2022-08-12T16:16:43.462Z,53.75
2022-08-12T16:20:02.409Z,53.84
2022-08-12T16:22:11.472Z,53.79
2022-08-12T16:24:43.940Z,54.09
2022-08-12T16:27:11.334Z,54.28
2022-08-12T16:29:52.114Z,54.35
2022-08-12T16:32:24.058Z,54.47
2022-08-12T16:34:55.941Z,54.19
2022-08-12T16:37:32.784Z,54.57
2022-08-12T16:40:13.363Z,54.57
2022-08-12T16:42:53.898Z,54.87
2022-08-12T16:46:08.054Z,54.78
2022-08-12T16:48:34.605Z,54.71
2022-08-12T16:51:08.208Z,54.52
2022-08-12T16:53:44.730Z,54.71
2022-08-12T16:56:17.259Z,54.62
2022-08-12T16:58:44.960Z,54.51
2022-08-12T17:01:15.924Z,54.57
2022-08-12T17:03:52.507Z,54.67
2022-08-12T17:06:27.642Z,54.61
2022-08-12T17:09:08.778Z,54.56
2022-08-12T17:11:44.622Z,54.32
2022-08-12T17:14:11.783Z,54.77
2022-08-12T17:16:40.875Z,54.48
2022-08-12T17:19:09.530Z,54.77
2022-08-12T17:21:40.937Z,54.85
2022-08-12T17:24:21.548Z,54.68
2022-08-12T17:26:54.229Z,54.80
2022-08-12T17:29:32.327Z,54.79
2022-08-12T17:32:11.491Z,54.85
2022-08-12T17:34:57.070Z,55.19
2022-08-12T17:37:24.092Z,55.00
2022-08-12T17:40:12.771Z,55.35
2022-08-12T17:42:40.873Z,55.55
2022-08-12T17:45:17.878Z,55.36
2022-08-12T17:48:04.728Z,55.80
2022-08-12T17:50:38.234Z,55.89
2022-08-12T17:53:07.824Z,55.88
2022-08-12T17:55:44.733Z,55.68
2022-08-12T17:58:17.763Z,56.12
2022-08-12T18:00:45.924Z,55.84
2022-08-12T18:03:58.031Z,55.69
2022-08-12T18:06:13.604Z,55.99
2022-08-12T18:08:54.323Z,55.77
2022-08-12T18:12:06.345Z,55.92
2022-08-12T18:14:30.345Z,55.79
2022-08-12T18:17:02.544Z,55.88
2022-08-12T18:20:04.370Z,56.10
2022-08-12T18:22:22.026Z,56.01
2022-08-12T18:25:02.668Z,55.86
2022-08-12T18:27:44.646Z,55.66
2022-08-12T18:30:20.981Z,55.67
2022-08-12T18:33:04.719Z,56.06
2022-08-12T18:35:47.184Z,55.75
2022-08-12T18:38:22.672Z,55.80
2022-08-12T18:41:20.815Z,56.06
2022-08-12T18:44:07.838Z,55.79
2022-08-12T18:46:55.338Z,55.84
2022-08-12T18:49:38.594Z,55.79
2022-08-12T18:52:08.327Z,55.74
2022-08-12T18:54:41.561Z,55.74
2022-08-12T18:57:45.627Z,56.14
2022-08-12T19:00:07.772Z,55.95
2022-08-12T19:02:39.763Z,56.10
2022-08-12T19:05:12.301Z,56.16
2022-08-12T19:07:50.032Z,56.35
2022-08-12T19:10:28.266Z,56.40
2022-08-12T19:13:24.384Z,56.03
2022-08-12T19:15:57.471Z,56.35
2022-08-12T19:18:31.432Z,56.46
2022-08-12T19:21:11.710Z,56.38
2022-08-12T19:23:45.232Z,56.58
2022-08-12T19:26:13.297Z,56.90
2022-08-12T19:28:41.472Z,56.56
2022-08-12T19:31:44.791Z,57.10
2022-08-12T19:38:02.830Z,57.07
2022-08-12T19:40:32.888Z,57.17
2022-08-12T19:43:20.147Z,57.37
2022-08-12T19:45:51.985Z,57.00
2022-08-12T19:48:24.065Z,57.21
2022-08-12T19:50:56.061Z,57.41
2022-08-12T19:53:24.785Z,57.02
2022-08-12T19:55:55.122Z,57.12
2022-08-12T19:58:23.445Z,57.23
2022-08-12T20:00:53.634Z,57.08
2022-08-12T20:03:38.076Z,57.25
2022-08-12T20:06:15.792Z,57.33
2022-08-12T20:08:49.406Z,57.12
2022-08-12T20:12:10.158Z,57.49
2022-08-12T20:14:18.537Z,56.93
2022-08-12T20:16:57.655Z,57.00
2022-08-12T20:20:01.513Z,57.01
2022-08-12T20:22:24.583Z,57.04
2022-08-12T20:25:01.597Z,56.84
2022-08-12T20:28:04.448Z,56.67
2022-08-12T20:30:37.609Z,56.80
2022-08-12T20:33:17.629Z,56.79
2022-08-12T20:36:13.915Z,56.88
2022-08-12T20:38:40.552Z,56.52
2022-08-12T20:41:16.307Z,56.56
2022-08-12T20:43:46.534Z,56.61
2022-08-12T20:46:14.302Z,56.60
2022-08-12T20:48:44.472Z,56.50
2022-08-12T20:51:15.973Z,56.85
2022-08-12T20:53:58.513Z,56.73
2022-08-12T20:56:34.970Z,56.45
2022-08-12T20:59:19.818Z,56.47
2022-08-12T21:01:49.044Z,56.70
2022-08-12T21:04:37.173Z,56.57
2022-08-12T21:07:09.198Z,56.36
2022-08-12T21:09:49.129Z,56.27
2022-08-12T21:12:32.802Z,56.58
2022-08-12T21:15:23.286Z,56.24
2022-08-12T21:18:10.843Z,56.73
2022-08-12T21:20:44.700Z,56.26
2022-08-12T21:23:11.910Z,56.14
2022-08-12T21:25:45.059Z,56.27
2022-08-12T21:28:14.756Z,56.51
2022-08-12T21:30:43.612Z,56.47
2022-08-12T21:33:45.651Z,56.38
2022-08-12T21:36:22.614Z,56.21
2022-08-12T21:39:18.934Z,56.29
2022-08-12T21:41:54.408Z,56.11
2022-08-12T21:45:44.599Z,56.36
2022-08-12T21:47:21.755Z,56.01
2022-08-12T21:50:03.798Z,56.42
2022-08-12T21:52:49.020Z,56.17
2022-08-12T21:55:18.936Z,55.87
2022-08-12T21:57:54.438Z,56.35
2022-08-12T22:00:33.015Z,55.87
2022-08-12T22:04:03.466Z,56.13
2022-08-12T22:06:31.304Z,56.19
2022-08-12T22:09:08.522Z,56.33
2022-08-12T22:11:42.012Z,56.03
2022-08-12T22:14:17.901Z,55.96
2022-08-12T22:16:54.263Z,56.34
2022-08-12T22:19:22.612Z,56.07
2022-08-12T22:21:55.545Z,56.00
2022-08-12T22:24:30.540Z,56.55
2022-08-12T22:27:08.173Z,56.62
2022-08-12T22:30:05.925Z,56.79
2022-08-12T22:32:34.251Z,56.59
2022-08-12T22:35:21.937Z,56.94
2022-08-12T22:37:51.011Z,57.09
2022-08-12T22:40:20.830Z,57.04
2022-08-12T22:43:06.573Z,57.01
2022-08-12T22:45:56.584Z,56.96
2022-08-12T22:48:26.821Z,57.09
2022-08-12T22:50:59.218Z,57.29
2022-08-12T22:53:36.060Z,57.39
2022-08-12T22:56:06.762Z,57.15
2022-08-12T22:58:41.306Z,57.67
2022-08-12T23:01:13.795Z,57.47
2022-08-12T23:03:50.972Z,57.27
2022-08-12T23:06:26.939Z,57.62
2022-08-12T23:08:55.581Z,57.32
2022-08-12T23:11:25.417Z,57.70
2022-08-12T23:14:04.344Z,57.39
2022-08-12T23:16:34.080Z,57.26
2022-08-12T23:19:09.747Z,57.65
2022-08-12T23:22:06.044Z,57.47
2022-08-12T23:24:38.505Z,57.43
2022-08-12T23:27:35.170Z,57.83
2022-08-12T23:30:18.754Z,57.81
2022-08-12T23:32:54.721Z,57.42
2022-08-12T23:35:45.655Z,57.73
2022-08-12T23:38:30.133Z,57.52
2022-08-12T23:41:00.842Z,57.65
2022-08-12T23:43:38.421Z,57.72
2022-08-12T23:46:09.065Z,57.93
2022-08-12T23:48:37.993Z,57.93
2022-08-12T23:51:22.182Z,57.85
2022-08-12T23:53:50.915Z,58.05
2022-08-12T23:56:17.868Z,57.76
2022-08-12T23:58:52.937Z,57.93
